sensor_id;sensor_type;location;lat;lon;timestamp;pressure;altitude;pressure_sealevel;temperature
71630;BMP280;59479;51.902;8.212;2023-11-21T00:02:01;100393.63;;;9.47
71630;BMP280;59479;51.902;8.212;2023-11-21T00:04:26;100403.66;;;9.48
71630;BMP280;59479;51.902;8.212;2023-11-21T00:06:52;100402.84;;;9.46
71630;BMP280;59479;51.902;8.212;2023-11-21T00:09:18;100397.00;;;9.47
71630;BMP280;59479;51.902;8.212;2023-11-21T00:11:44;100404.53;;;9.49
71630;BMP280;59479;51.902;8.212;2023-11-21T00:14:13;100399.50;;;9.46
71630;BMP280;59479;51.902;8.212;2023-11-21T00:16:40;100403.66;;;9.48
71630;BMP280;59479;51.902;8.212;2023-11-21T00:19:06;100401.16;;;9.48
71630;BMP280;59479;51.902;8.212;2023-11-21T00:21:31;100411.19;;;9.51
71630;BMP280;59479;51.902;8.212;2023-11-21T00:23:57;100412.03;;;9.53
71630;BMP280;59479;51.902;8.212;2023-11-21T00:26:22;100405.38;;;9.52
71630;BMP280;59479;51.902;8.212;2023-11-21T00:28:49;100417.91;;;9.52
71630;BMP280;59479;51.902;8.212;2023-11-21T00:31:14;100413.72;;;9.51
71630;BMP280;59479;51.902;8.212;2023-11-21T00:33:40;100407.84;;;9.49
71630;BMP280;59479;51.902;8.212;2023-11-21T00:36:05;100415.38;;;9.51
71630;BMP280;59479;51.902;8.212;2023-11-21T00:38:37;100413.72;;;9.51
71630;BMP280;59479;51.902;8.212;2023-11-21T00:41:05;100416.22;;;9.53
71630;BMP280;59479;51.902;8.212;2023-11-21T00:43:30;100412.03;;;9.53
71630;BMP280;59479;51.902;8.212;2023-11-21T00:45:56;100412.88;;;9.55
71630;BMP280;59479;51.902;8.212;2023-11-21T00:48:21;100405.34;;;9.57
71630;BMP280;59479;51.902;8.212;2023-11-21T00:50:46;100413.69;;;9.59
71630;BMP280;59479;51.902;8.212;2023-11-21T00:53:12;100412.88;;;9.61
71630;BMP280;59479;51.902;8.212;2023-11-21T00:55:37;100420.41;;;9.61
71630;BMP280;59479;51.902;8.212;2023-11-21T00:58:05;100420.41;;;9.64
71630;BMP280;59479;51.902;8.212;2023-11-21T01:00:32;100412.88;;;9.64
71630;BMP280;59479;51.902;8.212;2023-11-21T01:02:57;100422.94;;;9.65
71630;BMP280;59479;51.902;8.212;2023-11-21T01:05:23;100432.13;;;9.68
71630;BMP280;59479;51.902;8.212;2023-11-21T01:07:48;100427.09;;;9.68
71630;BMP280;59479;51.902;8.212;2023-11-21T01:10:13;100434.63;;;9.69
71630;BMP280;59479;51.902;8.212;2023-11-21T01:12:39;100434.63;;;9.69
71630;BMP280;59479;51.902;8.212;2023-11-21T01:15:05;100438.00;;;9.65
71630;BMP280;59479;51.902;8.212;2023-11-21T01:17:34;100441.34;;;9.69
71630;BMP280;59479;51.902;8.212;2023-11-21T01:20:00;100434.63;;;9.68
71630;BMP280;59479;51.902;8.212;2023-11-21T01:22:26;100428.78;;;9.70
71630;BMP280;59479;51.902;8.212;2023-11-21T01:24:54;100432.13;;;9.74
71630;BMP280;59479;51.902;8.212;2023-11-21T01:27:20;100443.81;;;9.72
71630;BMP280;59479;51.902;8.212;2023-11-21T01:29:45;100431.28;;;9.73
71630;BMP280;59479;51.902;8.212;2023-11-21T01:32:11;100432.97;;;9.76
71630;BMP280;59479;51.902;8.212;2023-11-21T01:34:36;100436.28;;;9.75
71630;BMP280;59479;51.902;8.212;2023-11-21T01:37:02;100438.81;;;9.75
71630;BMP280;59479;51.902;8.212;2023-11-21T01:39:29;100442.16;;;9.77
71630;BMP280;59479;51.902;8.212;2023-11-21T01:41:55;100428.78;;;9.78
71630;BMP280;59479;51.902;8.212;2023-11-21T01:44:20;100432.97;;;9.80
71630;BMP280;59479;51.902;8.212;2023-11-21T01:46:46;100433.78;;;9.85
71630;BMP280;59479;51.902;8.212;2023-11-21T01:49:13;100434.63;;;9.86
71630;BMP280;59479;51.902;8.212;2023-11-21T01:51:41;100437.16;;;9.87
71630;BMP280;59479;51.902;8.212;2023-11-21T01:54:08;100438.81;;;9.90
71630;BMP280;59479;51.902;8.212;2023-11-21T01:56:34;100438.81;;;9.88
71630;BMP280;59479;51.902;8.212;2023-11-21T01:58:59;100431.28;;;9.88
71630;BMP280;59479;51.902;8.212;2023-11-21T02:01:25;100431.28;;;9.88
71630;BMP280;59479;51.902;8.212;2023-11-21T02:03:51;100433.78;;;9.90
71630;BMP280;59479;51.902;8.212;2023-11-21T02:06:17;100435.47;;;9.91
71630;BMP280;59479;51.902;8.212;2023-11-21T02:08:43;100444.66;;;9.92
71630;BMP280;59479;51.902;8.212;2023-11-21T02:11:09;100446.34;;;9.91
71630;BMP280;59479;51.902;8.212;2023-11-21T02:13:38;100448.03;;;9.91
71630;BMP280;59479;51.902;8.212;2023-11-21T02:16:04;100451.41;;;9.93
71630;BMP280;59479;51.902;8.212;2023-11-21T02:18:30;100447.22;;;9.95
71630;BMP280;59479;51.902;8.212;2023-11-21T02:20:56;100454.75;;;9.98
71630;BMP280;59479;51.902;8.212;2023-11-21T02:23:21;100464.78;;;9.98
71630;BMP280;59479;51.902;8.212;2023-11-21T02:25:48;100463.09;;;9.97
71630;BMP280;59479;51.902;8.212;2023-11-21T02:28:13;100466.47;;;9.97
71630;BMP280;59479;51.902;8.212;2023-11-21T02:30:41;100468.13;;;9.98
71630;BMP280;59479;51.902;8.212;2023-11-21T02:33:07;100466.44;;;10.02
71630;BMP280;59479;51.902;8.212;2023-11-21T02:35:32;100470.63;;;10.00
71630;BMP280;59479;51.902;8.212;2023-11-21T02:37:58;100477.31;;;10.04
71630;BMP280;59479;51.902;8.212;2023-11-21T02:40:23;100482.34;;;10.04
71630;BMP280;59479;51.902;8.212;2023-11-21T02:42:50;100482.38;;;10.01
71630;BMP280;59479;51.902;8.212;2023-11-21T02:45:21;100484.84;;;10.04
71630;BMP280;59479;51.902;8.212;2023-11-21T02:47:47;100484.03;;;10.03
71630;BMP280;59479;51.902;8.212;2023-11-21T02:50:14;100487.38;;;10.06
71630;BMP280;59479;51.902;8.212;2023-11-21T02:52:39;100497.41;;;10.09
71630;BMP280;59479;51.902;8.212;2023-11-21T02:55:05;100486.53;;;10.09
71630;BMP280;59479;51.902;8.212;2023-11-21T02:57:32;100487.38;;;10.09
71630;BMP280;59479;51.902;8.212;2023-11-21T02:59:58;100485.69;;;10.11
71630;BMP280;59479;51.902;8.212;2023-11-21T03:02:25;100489.91;;;10.12
71630;BMP280;59479;51.902;8.212;2023-11-21T03:04:50;100488.22;;;10.13
71630;BMP280;59479;51.902;8.212;2023-11-21T03:07:16;100490.72;;;10.13
71630;BMP280;59479;51.902;8.212;2023-11-21T03:09:42;100491.56;;;10.12
71630;BMP280;59479;51.902;8.212;2023-11-21T03:12:09;100493.22;;;10.11
71630;BMP280;59479;51.902;8.212;2023-11-21T03:14:35;100489.03;;;10.13
71630;BMP280;59479;51.902;8.212;2023-11-21T03:17:00;100492.41;;;10.15
71630;BMP280;59479;51.902;8.212;2023-11-21T03:19:25;100489.88;;;10.17
71630;BMP280;59479;51.902;8.212;2023-11-21T03:21:51;100494.06;;;10.19
71630;BMP280;59479;51.902;8.212;2023-11-21T03:24:18;100493.22;;;10.16
71630;BMP280;59479;51.902;8.212;2023-11-21T03:26:45;100500.78;;;10.17
71630;BMP280;59479;51.902;8.212;2023-11-21T03:29:11;100498.25;;;10.17
71630;BMP280;59479;51.902;8.212;2023-11-21T03:31:37;100505.81;;;10.20
71630;BMP280;59479;51.902;8.212;2023-11-21T03:34:02;100522.53;;;10.21
71630;BMP280;59479;51.902;8.212;2023-11-21T03:36:28;100518.34;;;10.20
71630;BMP280;59479;51.902;8.212;2023-11-21T03:38:54;100514.16;;;10.19
71630;BMP280;59479;51.902;8.212;2023-11-21T03:41:20;100515.84;;;10.20
71630;BMP280;59479;51.902;8.212;2023-11-21T03:43:46;100522.53;;;10.21
71630;BMP280;59479;51.902;8.212;2023-11-21T03:46:11;100524.22;;;10.21
71630;BMP280;59479;51.902;8.212;2023-11-21T03:48:37;100533.41;;;10.22
71630;BMP280;59479;51.902;8.212;2023-11-21T03:51:03;100532.56;;;10.24
71630;BMP280;59479;51.902;8.212;2023-11-21T03:53:28;100542.63;;;10.24
71630;BMP280;59479;51.902;8.212;2023-11-21T03:55:53;100537.59;;;10.24
71630;BMP280;59479;51.902;8.212;2023-11-21T03:58:19;100534.25;;;10.25
71630;BMP280;59479;51.902;8.212;2023-11-21T04:00:44;100536.78;;;10.22
71630;BMP280;59479;51.902;8.212;2023-11-21T04:03:09;100546.81;;;10.24
71630;BMP280;59479;51.902;8.212;2023-11-21T04:05:35;100548.47;;;10.25
71630;BMP280;59479;51.902;8.212;2023-11-21T04:08:00;100548.47;;;10.22
71630;BMP280;59479;51.902;8.212;2023-11-21T04:10:26;100547.66;;;10.24
71630;BMP280;59479;51.902;8.212;2023-11-21T04:12:51;100551.84;;;10.25
71630;BMP280;59479;51.902;8.212;2023-11-21T04:15:16;100564.41;;;10.25
71630;BMP280;59479;51.902;8.212;2023-11-21T04:17:42;100564.38;;;10.28
71630;BMP280;59479;51.902;8.212;2023-11-21T04:20:08;100567.72;;;10.30
71630;BMP280;59479;51.902;8.212;2023-11-21T04:22:40;100568.56;;;10.28
71630;BMP280;59479;51.902;8.212;2023-11-21T04:25:08;100571.09;;;10.29
71630;BMP280;59479;51.902;8.212;2023-11-21T04:27:34;100572.75;;;10.32
71630;BMP280;59479;51.902;8.212;2023-11-21T04:29:59;100564.38;;;10.30
71630;BMP280;59479;51.902;8.212;2023-11-21T04:32:25;100572.75;;;10.30
71630;BMP280;59479;51.902;8.212;2023-11-21T04:34:50;100565.22;;;10.26
71630;BMP280;59479;51.902;8.212;2023-11-21T04:37:16;100571.94;;;10.22
71630;BMP280;59479;51.902;8.212;2023-11-21T04:39:41;100571.06;;;10.23
71630;BMP280;59479;51.902;8.212;2023-11-21T04:42:06;100570.25;;;10.20
71630;BMP280;59479;51.902;8.212;2023-11-21T04:44:31;100563.56;;;10.19
71630;BMP280;59479;51.902;8.212;2023-11-21T04:46:57;100569.41;;;10.19
71630;BMP280;59479;51.902;8.212;2023-11-21T04:49:22;100576.13;;;10.19
71630;BMP280;59479;51.902;8.212;2023-11-21T04:51:47;100569.41;;;10.16
71630;BMP280;59479;51.902;8.212;2023-11-21T04:54:13;100566.06;;;10.17
71630;BMP280;59479;51.902;8.212;2023-11-21T04:56:38;100567.72;;;10.18
71630;BMP280;59479;51.902;8.212;2023-11-21T04:59:03;100571.09;;;10.20
71630;BMP280;59479;51.902;8.212;2023-11-21T05:01:29;100576.94;;;10.19
71630;BMP280;59479;51.902;8.212;2023-11-21T05:03:55;100576.94;;;10.18
71630;BMP280;59479;51.902;8.212;2023-11-21T05:06:22;100576.09;;;10.16
71630;BMP280;59479;51.902;8.212;2023-11-21T05:08:47;100580.28;;;10.17
71630;BMP280;59479;51.902;8.212;2023-11-21T05:11:23;100575.28;;;10.14
71630;BMP280;59479;51.902;8.212;2023-11-21T05:13:48;100576.09;;;10.14
71630;BMP280;59479;51.902;8.212;2023-11-21T05:16:14;100581.97;;;10.18
71630;BMP280;59479;51.902;8.212;2023-11-21T05:18:40;100584.47;;;10.16
71630;BMP280;59479;51.902;8.212;2023-11-21T05:21:05;100586.16;;;10.16
71630;BMP280;59479;51.902;8.212;2023-11-21T05:23:31;100587.81;;;10.12
71630;BMP280;59479;51.902;8.212;2023-11-21T05:25:56;100594.53;;;10.12
71630;BMP280;59479;51.902;8.212;2023-11-21T05:28:22;100600.38;;;10.11
71630;BMP280;59479;51.902;8.212;2023-11-21T05:30:47;100604.56;;;10.10
71630;BMP280;59479;51.902;8.212;2023-11-21T05:33:14;100606.22;;;10.11
71630;BMP280;59479;51.902;8.212;2023-11-21T05:35:39;100599.53;;;10.13
71630;BMP280;59479;51.902;8.212;2023-11-21T05:38:04;100617.97;;;10.14
71630;BMP280;59479;51.902;8.212;2023-11-21T05:40:30;100600.38;;;10.14
71630;BMP280;59479;51.902;8.212;2023-11-21T05:42:55;100607.06;;;10.13
71630;BMP280;59479;51.902;8.212;2023-11-21T05:45:21;100617.97;;;10.11
71630;BMP280;59479;51.902;8.212;2023-11-21T05:47:46;100623.81;;;10.11
71630;BMP280;59479;51.902;8.212;2023-11-21T05:50:13;100616.28;;;10.11
71630;BMP280;59479;51.902;8.212;2023-11-21T05:52:46;100615.44;;;10.09
71630;BMP280;59479;51.902;8.212;2023-11-21T05:55:12;100617.13;;;10.09
71630;BMP280;59479;51.902;8.212;2023-11-21T05:57:39;100619.63;;;10.07
71630;BMP280;59479;51.902;8.212;2023-11-21T06:00:08;100621.28;;;10.08
71630;BMP280;59479;51.902;8.212;2023-11-21T06:02:51;100629.66;;;10.07
71630;BMP280;59479;51.902;8.212;2023-11-21T06:05:22;100629.66;;;10.07
71630;BMP280;59479;51.902;8.212;2023-11-21T06:07:51;100639.72;;;10.10
71630;BMP280;59479;51.902;8.212;2023-11-21T06:10:20;100641.38;;;10.11
71630;BMP280;59479;51.902;8.212;2023-11-21T06:12:45;100647.28;;;10.12
71630;BMP280;59479;51.902;8.212;2023-11-21T06:15:11;100652.28;;;10.12
71630;BMP280;59479;51.902;8.212;2023-11-21T06:17:40;100649.75;;;10.13
71630;BMP280;59479;51.902;8.212;2023-11-21T06:20:08;100655.66;;;10.15
71630;BMP280;59479;51.902;8.212;2023-11-21T06:22:40;100661.50;;;10.17
71630;BMP280;59479;51.902;8.212;2023-11-21T06:25:06;100662.31;;;10.16
71630;BMP280;59479;51.902;8.212;2023-11-21T06:27:33;100667.34;;;10.18
71630;BMP280;59479;51.902;8.212;2023-11-21T06:29:59;100672.38;;;10.19
71630;BMP280;59479;51.902;8.212;2023-11-21T06:32:24;100676.56;;;10.19
71630;BMP280;59479;51.902;8.212;2023-11-21T06:34:51;100680.75;;;10.20
71630;BMP280;59479;51.902;8.212;2023-11-21T06:37:19;100684.94;;;10.21
71630;BMP280;59479;51.902;8.212;2023-11-21T06:39:48;100696.66;;;10.22
71630;BMP280;59479;51.902;8.212;2023-11-21T06:42:13;100700.84;;;10.20
71630;BMP280;59479;51.902;8.212;2023-11-21T06:44:40;100703.34;;;10.21
71630;BMP280;59479;51.902;8.212;2023-11-21T06:47:06;100697.50;;;10.21
71630;BMP280;59479;51.902;8.212;2023-11-21T06:49:32;100698.31;;;10.20
71630;BMP280;59479;51.902;8.212;2023-11-21T06:51:57;100700.84;;;10.20
71630;BMP280;59479;51.902;8.212;2023-11-21T06:54:23;100711.75;;;10.20
71630;BMP280;59479;51.902;8.212;2023-11-21T06:56:49;100720.13;;;10.24
71630;BMP280;59479;51.902;8.212;2023-11-21T06:59:15;100720.13;;;10.24
71630;BMP280;59479;51.902;8.212;2023-11-21T07:01:40;100719.28;;;10.25
71630;BMP280;59479;51.902;8.212;2023-11-21T07:04:07;100740.22;;;10.25
71630;BMP280;59479;51.902;8.212;2023-11-21T07:06:32;100739.38;;;10.26
71630;BMP280;59479;51.902;8.212;2023-11-21T07:08:58;100748.59;;;10.27
71630;BMP280;59479;51.902;8.212;2023-11-21T07:11:24;100748.59;;;10.27
71630;BMP280;59479;51.902;8.212;2023-11-21T07:13:49;100756.13;;;10.23
71630;BMP280;59479;51.902;8.212;2023-11-21T07:16:14;100746.06;;;10.21
71630;BMP280;59479;51.902;8.212;2023-11-21T07:18:40;100756.09;;;10.18
71630;BMP280;59479;51.902;8.212;2023-11-21T07:21:06;100751.94;;;10.20
71630;BMP280;59479;51.902;8.212;2023-11-21T07:23:33;100759.44;;;10.17
71630;BMP280;59479;51.902;8.212;2023-11-21T07:25:59;100766.97;;;10.14
71630;BMP280;59479;51.902;8.212;2023-11-21T07:28:24;100751.06;;;10.17
71630;BMP280;59479;51.902;8.212;2023-11-21T07:30:50;100764.47;;;10.22
71630;BMP280;59479;51.902;8.212;2023-11-21T07:33:16;100771.16;;;10.20
71630;BMP280;59479;51.902;8.212;2023-11-21T07:35:42;100773.66;;;10.18
71630;BMP280;59479;51.902;8.212;2023-11-21T07:38:07;100777.84;;;10.12
71630;BMP280;59479;51.902;8.212;2023-11-21T07:40:33;100782.03;;;10.16
71630;BMP280;59479;51.902;8.212;2023-11-21T07:42:58;100788.69;;;10.06
71630;BMP280;59479;51.902;8.212;2023-11-21T07:45:24;100793.75;;;10.12
71630;BMP280;59479;51.902;8.212;2023-11-21T07:47:53;100792.91;;;10.15
71630;BMP280;59479;51.902;8.212;2023-11-21T07:50:18;100795.44;;;10.19
71630;BMP280;59479;51.902;8.212;2023-11-21T07:52:45;100796.31;;;10.23
71630;BMP280;59479;51.902;8.212;2023-11-21T07:55:10;100787.94;;;10.21
71630;BMP280;59479;51.902;8.212;2023-11-21T07:57:36;100797.94;;;10.18
71630;BMP280;59479;51.902;8.212;2023-11-21T08:00:02;100786.25;;;10.24
71630;BMP280;59479;51.902;8.212;2023-11-21T08:02:28;100795.47;;;10.28
71630;BMP280;59479;51.902;8.212;2023-11-21T08:04:54;100793.81;;;10.30
71630;BMP280;59479;51.902;8.212;2023-11-21T08:07:21;100798.00;;;10.25
71630;BMP280;59479;51.902;8.212;2023-11-21T08:09:47;100808.06;;;10.31
71630;BMP280;59479;51.902;8.212;2023-11-21T08:12:15;100811.41;;;10.35
71630;BMP280;59479;51.902;8.212;2023-11-21T08:14:40;100810.56;;;10.31
71630;BMP280;59479;51.902;8.212;2023-11-21T08:17:05;100804.72;;;10.35
71630;BMP280;59479;51.902;8.212;2023-11-21T08:19:31;100809.72;;;10.26
71630;BMP280;59479;51.902;8.212;2023-11-21T08:21:58;100814.72;;;10.26
71630;BMP280;59479;51.902;8.212;2023-11-21T08:24:24;100818.84;;;10.11
71630;BMP280;59479;51.902;8.212;2023-11-21T08:26:49;100823.88;;;10.17
71630;BMP280;59479;51.902;8.212;2023-11-21T08:29:16;100833.97;;;10.15
71630;BMP280;59479;51.902;8.212;2023-11-21T08:31:41;100826.41;;;10.20
71630;BMP280;59479;51.902;8.212;2023-11-21T08:34:07;100835.69;;;10.25
71630;BMP280;59479;51.902;8.212;2023-11-21T08:36:33;100837.34;;;10.20
71630;BMP280;59479;51.902;8.212;2023-11-21T08:38:59;100843.16;;;10.18
71630;BMP280;59479;51.902;8.212;2023-11-21T08:41:24;100844.84;;;10.22
71630;BMP280;59479;51.902;8.212;2023-11-21T08:43:50;100836.53;;;10.29
71630;BMP280;59479;51.902;8.212;2023-11-21T08:46:16;100855.78;;;10.31
71630;BMP280;59479;51.902;8.212;2023-11-21T08:48:43;100854.13;;;10.35
71630;BMP280;59479;51.902;8.212;2023-11-21T08:51:11;100860.84;;;10.34
71630;BMP280;59479;51.902;8.212;2023-11-21T08:53:42;100861.66;;;10.33
71630;BMP280;59479;51.902;8.212;2023-11-21T08:56:16;100866.69;;;10.33
71630;BMP280;59479;51.902;8.212;2023-11-21T08:58:44;100879.25;;;10.36
71630;BMP280;59479;51.902;8.212;2023-11-21T09:01:10;100876.75;;;10.36
71630;BMP280;59479;51.902;8.212;2023-11-21T09:03:42;100879.25;;;10.33
71630;BMP280;59479;51.902;8.212;2023-11-21T09:06:29;100880.09;;;10.40
71630;BMP280;59479;51.902;8.212;2023-11-21T09:08:55;100880.94;;;10.36
71630;BMP280;59479;51.902;8.212;2023-11-21T09:11:21;100883.41;;;10.25
71630;BMP280;59479;51.902;8.212;2023-11-21T09:13:47;100885.94;;;10.31
71630;BMP280;59479;51.902;8.212;2023-11-21T09:16:14;100882.59;;;10.35
71630;BMP280;59479;51.902;8.212;2023-11-21T09:18:41;100889.31;;;10.36
71630;BMP280;59479;51.902;8.212;2023-11-21T09:21:07;100886.81;;;10.39
71630;BMP280;59479;51.902;8.212;2023-11-21T09:23:35;100891.84;;;10.39
71630;BMP280;59479;51.902;8.212;2023-11-21T09:26:02;100894.34;;;10.38
71630;BMP280;59479;51.902;8.212;2023-11-21T09:28:27;100900.25;;;10.44
71630;BMP280;59479;51.902;8.212;2023-11-21T09:30:54;100898.53;;;10.43
71630;BMP280;59479;51.902;8.212;2023-11-21T09:33:20;100912.78;;;10.41
71630;BMP280;59479;51.902;8.212;2023-11-21T09:35:48;100908.59;;;10.42
71630;BMP280;59479;51.902;8.212;2023-11-21T09:38:16;100914.47;;;10.45
71630;BMP280;59479;51.902;8.212;2023-11-21T09:40:41;100919.50;;;10.48
71630;BMP280;59479;51.902;8.212;2023-11-21T09:43:16;100929.59;;;10.51
71630;BMP280;59479;51.902;8.212;2023-11-21T09:45:45;100926.22;;;10.49
71630;BMP280;59479;51.902;8.212;2023-11-21T09:48:13;100937.09;;;10.45
71630;BMP280;59479;51.902;8.212;2023-11-21T09:50:42;100934.59;;;10.49
71630;BMP280;59479;51.902;8.212;2023-11-21T09:55:44;100947.19;;;10.51
71630;BMP280;59479;51.902;8.212;2023-11-21T09:58:21;100950.53;;;10.51
71630;BMP280;59479;51.902;8.212;2023-11-21T10:00:53;100949.75;;;10.57
71630;BMP280;59479;51.902;8.212;2023-11-21T10:03:19;100948.88;;;10.52
71630;BMP280;59479;51.902;8.212;2023-11-21T10:05:45;100960.56;;;10.48
71630;BMP280;59479;51.902;8.212;2023-11-21T10:08:13;100957.28;;;10.55
71630;BMP280;59479;51.902;8.212;2023-11-21T10:10:43;100945.50;;;10.53
71630;BMP280;59479;51.902;8.212;2023-11-21T10:13:14;100958.09;;;10.56
71630;BMP280;59479;51.902;8.212;2023-11-21T10:15:43;100959.75;;;10.51
71630;BMP280;59479;51.902;8.212;2023-11-21T10:18:16;100957.25;;;10.58
71630;BMP280;59479;51.902;8.212;2023-11-21T10:20:44;100954.75;;;10.60
71630;BMP280;59479;51.902;8.212;2023-11-21T10:23:18;100964.88;;;10.69
71630;BMP280;59479;51.902;8.212;2023-11-21T10:25:44;100959.81;;;10.66
71630;BMP280;59479;51.902;8.212;2023-11-21T10:28:10;100959.00;;;10.65
71630;BMP280;59479;51.902;8.212;2023-11-21T10:30:37;100963.13;;;10.62
71630;BMP280;59479;51.902;8.212;2023-11-21T10:33:26;100964.00;;;10.62
71630;BMP280;59479;51.902;8.212;2023-11-21T10:35:52;100959.00;;;10.73
71630;BMP280;59479;51.902;8.212;2023-11-21T10:38:21;100967.38;;;10.73
71630;BMP280;59479;51.902;8.212;2023-11-21T10:40:49;100952.31;;;10.73
71630;BMP280;59479;51.902;8.212;2023-11-21T10:43:16;100963.19;;;10.68
71630;BMP280;59479;51.902;8.212;2023-11-21T10:45:45;100962.34;;;10.73
71630;BMP280;59479;51.902;8.212;2023-11-21T10:48:13;100964.88;;;10.72
71630;BMP280;59479;51.902;8.212;2023-11-21T10:50:43;100964.06;;;10.76
71630;BMP280;59479;51.902;8.212;2023-11-21T10:53:09;100964.00;;;10.62
71630;BMP280;59479;51.902;8.212;2023-11-21T10:56:15;100967.38;;;10.66
71630;BMP280;59479;51.902;8.212;2023-11-21T10:59:12;100968.22;;;10.69
71630;BMP280;59479;51.902;8.212;2023-11-21T11:02:10;100978.28;;;10.71
71630;BMP280;59479;51.902;8.212;2023-11-21T11:04:38;100969.94;;;10.78
71630;BMP280;59479;51.902;8.212;2023-11-21T11:07:05;100984.13;;;10.67
71630;BMP280;59479;51.902;8.212;2023-11-21T11:09:35;100994.19;;;10.65
71630;BMP280;59479;51.902;8.212;2023-11-21T11:12:02;101000.06;;;10.69
71630;BMP280;59479;51.902;8.212;2023-11-21T11:14:31;101003.34;;;10.62
71630;BMP280;59479;51.902;8.212;2023-11-21T11:16:58;101005.03;;;10.63
71630;BMP280;59479;51.902;8.212;2023-11-21T11:19:25;101005.84;;;10.57
71630;BMP280;59479;51.902;8.212;2023-11-21T11:22:07;101022.63;;;10.61
71630;BMP280;59479;51.902;8.212;2023-11-21T11:28:07;101015.00;;;10.48
71630;BMP280;59479;51.902;8.212;2023-11-21T11:31:00;101010.06;;;10.63
71630;BMP280;59479;51.902;8.212;2023-11-21T11:33:42;101015.94;;;10.65
71630;BMP280;59479;51.902;8.212;2023-11-21T11:36:48;101016.78;;;10.64
71630;BMP280;59479;51.902;8.212;2023-11-21T11:39:33;101019.31;;;10.67
71630;BMP280;59479;51.902;8.212;2023-11-21T11:42:03;101029.34;;;10.67
71630;BMP280;59479;51.902;8.212;2023-11-21T11:47:26;101038.59;;;10.69
71630;BMP280;59479;51.902;8.212;2023-11-21T11:50:13;101035.22;;;10.63
71630;BMP280;59479;51.902;8.212;2023-11-21T11:52:47;101030.19;;;10.63
71630;BMP280;59479;51.902;8.212;2023-11-21T11:55:16;101025.13;;;10.60
71630;BMP280;59479;51.902;8.212;2023-11-21T11:57:56;101028.50;;;10.63
71630;BMP280;59479;51.902;8.212;2023-11-21T12:02:55;101054.44;;;10.56
71630;BMP280;59479;51.902;8.212;2023-11-21T12:05:26;101051.13;;;10.62
71630;BMP280;59479;51.902;8.212;2023-11-21T12:07:57;101049.53;;;10.73
71630;BMP280;59479;51.902;8.212;2023-11-21T12:10:35;101067.06;;;10.64
71630;BMP280;59479;51.902;8.212;2023-11-21T12:13:23;101069.56;;;10.67
71630;BMP280;59479;51.902;8.212;2023-11-21T12:15:57;101074.56;;;10.58
71630;BMP280;59479;51.902;8.212;2023-11-21T12:49:38;101112.06;;;10.34
71630;BMP280;59479;51.902;8.212;2023-11-21T13:21:18;101148.78;;;10.22
71630;BMP280;59479;51.902;8.212;2023-11-21T13:36:47;101179.81;;;10.22
71630;BMP280;59479;51.902;8.212;2023-11-21T13:47:20;101200.69;;;10.20
71630;BMP280;59479;51.902;8.212;2023-11-21T13:50:08;101198.22;;;10.23
71630;BMP280;59479;51.902;8.212;2023-11-21T13:53:33;101210.78;;;10.24
71630;BMP280;59479;51.902;8.212;2023-11-21T13:56:53;101225.78;;;10.18
71630;BMP280;59479;51.902;8.212;2023-11-21T13:59:21;101214.84;;;10.12
71630;BMP280;59479;51.902;8.212;2023-11-21T14:01:53;101219.91;;;10.16
71630;BMP280;59479;51.902;8.212;2023-11-21T14:04:36;101230.75;;;10.12
71630;BMP280;59479;51.902;8.212;2023-11-21T14:07:16;101229.97;;;10.18
71630;BMP280;59479;51.902;8.212;2023-11-21T14:10:11;101231.63;;;10.16
71630;BMP280;59479;51.902;8.212;2023-11-21T14:12:41;101234.97;;;10.12
71630;BMP280;59479;51.902;8.212;2023-11-21T14:15:08;101239.22;;;10.22
71630;BMP280;59479;51.902;8.212;2023-11-21T14:17:35;101236.75;;;10.25
71630;BMP280;59479;51.902;8.212;2023-11-21T14:20:04;101235.03;;;10.21
71630;BMP280;59479;51.902;8.212;2023-11-21T14:23:13;101244.28;;;10.23
71630;BMP280;59479;51.902;8.212;2023-11-21T14:25:40;101237.69;;;10.33
71630;BMP280;59479;51.902;8.212;2023-11-21T14:28:08;101245.22;;;10.33
71630;BMP280;59479;51.902;8.212;2023-11-21T14:30:38;101255.28;;;10.34
71630;BMP280;59479;51.902;8.212;2023-11-21T14:33:24;101251.94;;;10.34
71630;BMP280;59479;51.902;8.212;2023-11-21T14:35:50;101256.97;;;10.35
71630;BMP280;59479;51.902;8.212;2023-11-21T14:38:16;101267.91;;;10.37
71630;BMP280;59479;51.902;8.212;2023-11-21T14:41:02;101268.69;;;10.35
71630;BMP280;59479;51.902;8.212;2023-11-21T14:43:27;101267.84;;;10.34
71630;BMP280;59479;51.902;8.212;2023-11-21T14:45:56;101270.38;;;10.34
71630;BMP280;59479;51.902;8.212;2023-11-21T14:48:25;101272.00;;;10.31
71630;BMP280;59479;51.902;8.212;2023-11-21T14:51:11;101279.47;;;10.25
71630;BMP280;59479;51.902;8.212;2023-11-21T14:53:55;101282.81;;;10.24
71630;BMP280;59479;51.902;8.212;2023-11-21T14:56:32;101298.00;;;10.34
71630;BMP280;59479;51.902;8.212;2023-11-21T14:59:02;101297.19;;;10.34
71630;BMP280;59479;51.902;8.212;2023-11-21T15:01:38;101291.31;;;10.36
71630;BMP280;59479;51.902;8.212;2023-11-21T15:04:23;101299.56;;;10.25
71630;BMP280;59479;51.902;8.212;2023-11-21T15:06:58;101305.44;;;10.25
71630;BMP280;59479;51.902;8.212;2023-11-21T15:09:24;101308.72;;;10.21
71630;BMP280;59479;51.902;8.212;2023-11-21T15:12:00;101323.03;;;10.25
71630;BMP280;59479;51.902;8.212;2023-11-21T15:14:45;101328.72;;;10.12
71630;BMP280;59479;51.902;8.212;2023-11-21T15:17:13;101332.09;;;10.14
71630;BMP280;59479;51.902;8.212;2023-11-21T15:19:44;101337.72;;;9.96
71630;BMP280;59479;51.902;8.212;2023-11-21T15:22:10;101354.59;;;10.08
71630;BMP280;59479;51.902;8.212;2023-11-21T15:24:40;101352.66;;;9.90
71630;BMP280;59479;51.902;8.212;2023-11-21T15:27:07;101352.78;;;9.96
71630;BMP280;59479;51.902;8.212;2023-11-21T15:29:32;101360.25;;;9.93
71630;BMP280;59479;51.902;8.212;2023-11-21T15:31:59;101360.31;;;9.99
71630;BMP280;59479;51.902;8.212;2023-11-21T15:34:25;101363.63;;;9.95
71630;BMP280;59479;51.902;8.212;2023-11-21T15:36:52;101356.00;;;9.92
71630;BMP280;59479;51.902;8.212;2023-11-21T15:39:20;101373.56;;;9.87
71630;BMP280;59479;51.902;8.212;2023-11-21T15:41:47;101382.78;;;9.90